sensor_id;sensor_type;location;lat;lon;timestamp;P1;durP1;ratioP1;P2;durP2;ratioP2
73150;SDS011;61354;50.758;6.106;2023-09-08T00:01:49;6.47;;;4.65;;
73150;SDS011;61354;50.758;6.106;2023-09-08T00:04:15;6.30;;;4.47;;
73150;SDS011;61354;50.758;6.106;2023-09-08T00:06:41;6.85;;;4.38;;
73150;SDS011;61354;50.758;6.106;2023-09-08T00:09:07;5.78;;;4.30;;
73150;SDS011;61354;50.758;6.106;2023-09-08T00:11:33;6.00;;;4.13;;
73150;SDS011;61354;50.758;6.106;2023-09-08T00:13:59;5.75;;;3.75;;
73150;SDS011;61354;50.758;6.106;2023-09-08T00:16:24;5.82;;;3.85;;
73150;SDS011;61354;50.758;6.106;2023-09-08T00:18:50;5.60;;;3.90;;
73150;SDS011;61354;50.758;6.106;2023-09-08T00:21:16;5.32;;;4.03;;
73150;SDS011;61354;50.758;6.106;2023-09-08T00:23:41;6.30;;;4.32;;
73150;SDS011;61354;50.758;6.106;2023-09-08T00:26:07;6.13;;;4.10;;
73150;SDS011;61354;50.758;6.106;2023-09-08T00:28:32;6.28;;;4.70;;
73150;SDS011;61354;50.758;6.106;2023-09-08T00:30:58;6.30;;;4.35;;
73150;SDS011;61354;50.758;6.106;2023-09-08T00:33:25;6.18;;;4.32;;
73150;SDS011;61354;50.758;6.106;2023-09-08T00:35:51;6.60;;;4.28;;
73150;SDS011;61354;50.758;6.106;2023-09-08T00:38:18;5.57;;;3.92;;
73150;SDS011;61354;50.758;6.106;2023-09-08T00:40:44;6.93;;;4.15;;
73150;SDS011;61354;50.758;6.106;2023-09-08T00:43:10;5.95;;;4.07;;
73150;SDS011;61354;50.758;6.106;2023-09-08T00:45:38;5.55;;;4.40;;
73150;SDS011;61354;50.758;6.106;2023-09-08T00:48:06;6.47;;;4.20;;
73150;SDS011;61354;50.758;6.106;2023-09-08T00:50:33;7.70;;;4.45;;
73150;SDS011;61354;50.758;6.106;2023-09-08T00:53:01;6.57;;;4.30;;
73150;SDS011;61354;50.758;6.106;2023-09-08T00:55:26;6.05;;;4.18;;
73150;SDS011;61354;50.758;6.106;2023-09-08T00:57:52;5.63;;;3.97;;
73150;SDS011;61354;50.758;6.106;2023-09-08T01:00:18;5.80;;;4.40;;
73150;SDS011;61354;50.758;6.106;2023-09-08T01:02:44;5.40;;;4.28;;
73150;SDS011;61354;50.758;6.106;2023-09-08T01:05:10;6.28;;;4.40;;
73150;SDS011;61354;50.758;6.106;2023-09-08T01:07:36;5.55;;;3.88;;
73150;SDS011;61354;50.758;6.106;2023-09-08T01:10:02;5.55;;;4.22;;
73150;SDS011;61354;50.758;6.106;2023-09-08T01:12:31;7.90;;;4.78;;
73150;SDS011;61354;50.758;6.106;2023-09-08T01:14:57;5.35;;;4.22;;
73150;SDS011;61354;50.758;6.106;2023-09-08T01:17:22;6.95;;;4.50;;
73150;SDS011;61354;50.758;6.106;2023-09-08T01:19:48;6.63;;;4.22;;
73150;SDS011;61354;50.758;6.106;2023-09-08T01:25:01;5.93;;;3.70;;
73150;SDS011;61354;50.758;6.106;2023-09-08T01:27:37;7.50;;;4.30;;
73150;SDS011;61354;50.758;6.106;2023-09-08T01:30:06;6.28;;;4.18;;
73150;SDS011;61354;50.758;6.106;2023-09-08T01:32:33;6.68;;;4.43;;
73150;SDS011;61354;50.758;6.106;2023-09-08T01:45:40;6.53;;;4.20;;
73150;SDS011;61354;50.758;6.106;2023-09-08T01:48:06;6.55;;;3.97;;
73150;SDS011;61354;50.758;6.106;2023-09-08T01:50:31;7.72;;;4.15;;
73150;SDS011;61354;50.758;6.106;2023-09-08T01:52:57;5.97;;;4.45;;
73150;SDS011;61354;50.758;6.106;2023-09-08T01:55:23;5.50;;;4.22;;
73150;SDS011;61354;50.758;6.106;2023-09-08T01:57:48;6.70;;;4.40;;
73150;SDS011;61354;50.758;6.106;2023-09-08T02:00:14;5.88;;;4.45;;
73150;SDS011;61354;50.758;6.106;2023-09-08T02:02:39;6.63;;;4.25;;
73150;SDS011;61354;50.758;6.106;2023-09-08T02:05:05;5.25;;;4.22;;
73150;SDS011;61354;50.758;6.106;2023-09-08T02:07:31;7.78;;;4.78;;
73150;SDS011;61354;50.758;6.106;2023-09-08T02:09:57;6.40;;;4.00;;
73150;SDS011;61354;50.758;6.106;2023-09-08T02:12:22;8.05;;;4.13;;
73150;SDS011;61354;50.758;6.106;2023-09-08T02:14:48;5.45;;;3.72;;
73150;SDS011;61354;50.758;6.106;2023-09-08T02:17:13;5.93;;;4.47;;
73150;SDS011;61354;50.758;6.106;2023-09-08T02:19:39;5.97;;;4.40;;
73150;SDS011;61354;50.758;6.106;2023-09-08T02:22:04;5.97;;;4.15;;
73150;SDS011;61354;50.758;6.106;2023-09-08T02:24:30;7.28;;;4.10;;
73150;SDS011;61354;50.758;6.106;2023-09-08T02:26:55;6.50;;;3.85;;
73150;SDS011;61354;50.758;6.106;2023-09-08T02:29:21;5.93;;;4.43;;
73150;SDS011;61354;50.758;6.106;2023-09-08T02:31:48;6.75;;;4.25;;
73150;SDS011;61354;50.758;6.106;2023-09-08T02:34:13;5.97;;;4.10;;
73150;SDS011;61354;50.758;6.106;2023-09-08T02:36:39;5.75;;;3.80;;
73150;SDS011;61354;50.758;6.106;2023-09-08T02:39:05;6.53;;;4.38;;
73150;SDS011;61354;50.758;6.106;2023-09-08T02:41:31;5.57;;;4.10;;
73150;SDS011;61354;50.758;6.106;2023-09-08T02:43:56;6.85;;;4.40;;
73150;SDS011;61354;50.758;6.106;2023-09-08T02:46:22;6.28;;;4.30;;
73150;SDS011;61354;50.758;6.106;2023-09-08T02:48:47;6.05;;;4.25;;
73150;SDS011;61354;50.758;6.106;2023-09-08T02:51:13;6.88;;;4.30;;
73150;SDS011;61354;50.758;6.106;2023-09-08T02:53:38;6.03;;;4.40;;
73150;SDS011;61354;50.758;6.106;2023-09-08T02:56:04;6.70;;;4.20;;
73150;SDS011;61354;50.758;6.106;2023-09-08T02:58:31;5.68;;;3.92;;
73150;SDS011;61354;50.758;6.106;2023-09-08T03:01:09;6.03;;;4.47;;
73150;SDS011;61354;50.758;6.106;2023-09-08T03:03:39;6.35;;;4.32;;
73150;SDS011;61354;50.758;6.106;2023-09-08T03:06:08;5.30;;;4.05;;
73150;SDS011;61354;50.758;6.106;2023-09-08T03:08:34;5.60;;;3.85;;
73150;SDS011;61354;50.758;6.106;2023-09-08T03:11:02;5.82;;;4.00;;
73150;SDS011;61354;50.758;6.106;2023-09-08T03:13:28;6.82;;;3.95;;
73150;SDS011;61354;50.758;6.106;2023-09-08T03:15:55;6.05;;;4.10;;
73150;SDS011;61354;50.758;6.106;2023-09-08T03:18:21;6.57;;;4.32;;
73150;SDS011;61354;50.758;6.106;2023-09-08T03:20:48;6.00;;;3.80;;
73150;SDS011;61354;50.758;6.106;2023-09-08T03:23:16;6.35;;;4.10;;
73150;SDS011;61354;50.758;6.106;2023-09-08T03:25:43;6.93;;;4.07;;
73150;SDS011;61354;50.758;6.106;2023-09-08T03:28:09;6.05;;;3.92;;
73150;SDS011;61354;50.758;6.106;2023-09-08T03:30:34;5.10;;;3.35;;
73150;SDS011;61354;50.758;6.106;2023-09-08T03:33:00;6.75;;;3.88;;
73150;SDS011;61354;50.758;6.106;2023-09-08T03:35:26;5.57;;;3.58;;
73150;SDS011;61354;50.758;6.106;2023-09-08T03:37:51;6.18;;;3.97;;
73150;SDS011;61354;50.758;6.106;2023-09-08T03:40:17;6.03;;;3.88;;
73150;SDS011;61354;50.758;6.106;2023-09-08T03:42:42;5.65;;;4.30;;
73150;SDS011;61354;50.758;6.106;2023-09-08T03:45:08;6.05;;;4.13;;
73150;SDS011;61354;50.758;6.106;2023-09-08T03:47:34;6.43;;;4.03;;
73150;SDS011;61354;50.758;6.106;2023-09-08T03:49:59;5.13;;;3.58;;
73150;SDS011;61354;50.758;6.106;2023-09-08T03:52:25;5.50;;;3.65;;
73150;SDS011;61354;50.758;6.106;2023-09-08T03:54:51;8.00;;;3.75;;
73150;SDS011;61354;50.758;6.106;2023-09-08T03:57:16;6.38;;;3.97;;
73150;SDS011;61354;50.758;6.106;2023-09-08T03:59:42;6.57;;;4.32;;
73150;SDS011;61354;50.758;6.106;2023-09-08T04:02:08;5.03;;;3.47;;
73150;SDS011;61354;50.758;6.106;2023-09-08T04:04:33;6.28;;;4.30;;
73150;SDS011;61354;50.758;6.106;2023-09-08T04:06:59;5.93;;;4.78;;
73150;SDS011;61354;50.758;6.106;2023-09-08T04:09:24;6.15;;;3.72;;
73150;SDS011;61354;50.758;6.106;2023-09-08T04:11:50;6.32;;;4.05;;
73150;SDS011;61354;50.758;6.106;2023-09-08T04:14:16;5.75;;;3.60;;
73150;SDS011;61354;50.758;6.106;2023-09-08T04:16:41;5.47;;;3.65;;
73150;SDS011;61354;50.758;6.106;2023-09-08T04:19:07;6.05;;;4.03;;
73150;SDS011;61354;50.758;6.106;2023-09-08T04:21:32;6.28;;;3.35;;
73150;SDS011;61354;50.758;6.106;2023-09-08T04:23:59;5.45;;;3.58;;
73150;SDS011;61354;50.758;6.106;2023-09-08T04:26:24;5.35;;;3.80;;
73150;SDS011;61354;50.758;6.106;2023-09-08T04:28:50;4.88;;;3.70;;
73150;SDS011;61354;50.758;6.106;2023-09-08T04:31:15;5.60;;;3.78;;
73150;SDS011;61354;50.758;6.106;2023-09-08T04:33:43;6.28;;;3.90;;
73150;SDS011;61354;50.758;6.106;2023-09-08T04:36:08;5.07;;;3.58;;
73150;SDS011;61354;50.758;6.106;2023-09-08T04:38:36;8.68;;;4.18;;
73150;SDS011;61354;50.758;6.106;2023-09-08T04:41:01;5.78;;;4.45;;
73150;SDS011;61354;50.758;6.106;2023-09-08T04:43:27;6.10;;;4.05;;
73150;SDS011;61354;50.758;6.106;2023-09-08T04:45:53;5.45;;;3.80;;
73150;SDS011;61354;50.758;6.106;2023-09-08T04:48:18;5.65;;;4.00;;
73150;SDS011;61354;50.758;6.106;2023-09-08T04:50:44;6.53;;;3.80;;
73150;SDS011;61354;50.758;6.106;2023-09-08T04:53:09;6.35;;;3.88;;
73150;SDS011;61354;50.758;6.106;2023-09-08T04:55:35;5.20;;;4.03;;
73150;SDS011;61354;50.758;6.106;2023-09-08T04:58:00;5.85;;;3.72;;
73150;SDS011;61354;50.758;6.106;2023-09-08T05:00:26;6.47;;;4.07;;
73150;SDS011;61354;50.758;6.106;2023-09-08T05:02:51;5.68;;;3.80;;
73150;SDS011;61354;50.758;6.106;2023-09-08T05:05:17;6.82;;;3.72;;
73150;SDS011;61354;50.758;6.106;2023-09-08T05:07:42;5.65;;;4.07;;
73150;SDS011;61354;50.758;6.106;2023-09-08T05:10:08;6.35;;;3.92;;
73150;SDS011;61354;50.758;6.106;2023-09-08T05:12:34;7.50;;;4.45;;
73150;SDS011;61354;50.758;6.106;2023-09-08T05:14:59;6.72;;;4.20;;
73150;SDS011;61354;50.758;6.106;2023-09-08T05:17:31;6.60;;;3.97;;
73150;SDS011;61354;50.758;6.106;2023-09-08T05:19:57;6.25;;;3.80;;
73150;SDS011;61354;50.758;6.106;2023-09-08T05:22:23;6.63;;;3.92;;
73150;SDS011;61354;50.758;6.106;2023-09-08T05:24:48;6.47;;;3.97;;
73150;SDS011;61354;50.758;6.106;2023-09-08T05:27:14;5.68;;;4.50;;
73150;SDS011;61354;50.758;6.106;2023-09-08T05:29:39;6.82;;;4.63;;
73150;SDS011;61354;50.758;6.106;2023-09-08T05:32:05;6.38;;;4.25;;
73150;SDS011;61354;50.758;6.106;2023-09-08T05:34:30;6.38;;;4.50;;
73150;SDS011;61354;50.758;6.106;2023-09-08T05:36:56;6.63;;;4.20;;
73150;SDS011;61354;50.758;6.106;2023-09-08T05:39:21;5.82;;;4.03;;
73150;SDS011;61354;50.758;6.106;2023-09-08T05:41:47;7.68;;;3.80;;
73150;SDS011;61354;50.758;6.106;2023-09-08T05:44:12;5.40;;;3.80;;
73150;SDS011;61354;50.758;6.106;2023-09-08T05:46:38;6.80;;;3.90;;
73150;SDS011;61354;50.758;6.106;2023-09-08T05:49:03;8.15;;;4.53;;
73150;SDS011;61354;50.758;6.106;2023-09-08T05:51:29;6.75;;;4.10;;
73150;SDS011;61354;50.758;6.106;2023-09-08T05:53:55;8.60;;;5.05;;
73150;SDS011;61354;50.758;6.106;2023-09-08T05:56:24;6.65;;;4.38;;
73150;SDS011;61354;50.758;6.106;2023-09-08T05:58:51;7.13;;;4.35;;
73150;SDS011;61354;50.758;6.106;2023-09-08T06:01:17;6.97;;;4.40;;
73150;SDS011;61354;50.758;6.106;2023-09-08T06:03:43;5.50;;;3.88;;
73150;SDS011;61354;50.758;6.106;2023-09-08T06:06:08;6.32;;;4.40;;
73150;SDS011;61354;50.758;6.106;2023-09-08T06:08:34;5.28;;;3.97;;
73150;SDS011;61354;50.758;6.106;2023-09-08T06:10:59;6.57;;;3.97;;
73150;SDS011;61354;50.758;6.106;2023-09-08T06:13:25;6.40;;;4.00;;
73150;SDS011;61354;50.758;6.106;2023-09-08T06:15:51;8.90;;;4.80;;
73150;SDS011;61354;50.758;6.106;2023-09-08T06:18:16;8.07;;;4.05;;
73150;SDS011;61354;50.758;6.106;2023-09-08T06:20:45;5.93;;;4.20;;
73150;SDS011;61354;50.758;6.106;2023-09-08T06:23:12;6.68;;;4.65;;
73150;SDS011;61354;50.758;6.106;2023-09-08T06:25:37;7.72;;;5.30;;
73150;SDS011;61354;50.758;6.106;2023-09-08T06:28:03;7.85;;;5.03;;
73150;SDS011;61354;50.758;6.106;2023-09-08T06:30:29;8.48;;;4.90;;
73150;SDS011;61354;50.758;6.106;2023-09-08T06:32:54;6.50;;;4.20;;
73150;SDS011;61354;50.758;6.106;2023-09-08T06:35:20;7.05;;;4.15;;
73150;SDS011;61354;50.758;6.106;2023-09-08T06:37:46;5.50;;;4.07;;
73150;SDS011;61354;50.758;6.106;2023-09-08T06:40:11;6.50;;;4.10;;
73150;SDS011;61354;50.758;6.106;2023-09-08T06:42:37;6.55;;;4.03;;
73150;SDS011;61354;50.758;6.106;2023-09-08T06:45:02;6.85;;;4.28;;
73150;SDS011;61354;50.758;6.106;2023-09-08T06:47:28;6.05;;;3.80;;
73150;SDS011;61354;50.758;6.106;2023-09-08T06:49:53;6.50;;;3.53;;
73150;SDS011;61354;50.758;6.106;2023-09-08T06:52:19;6.28;;;4.18;;
73150;SDS011;61354;50.758;6.106;2023-09-08T06:54:45;7.07;;;3.90;;
73150;SDS011;61354;50.758;6.106;2023-09-08T06:57:11;6.28;;;3.72;;
73150;SDS011;61354;50.758;6.106;2023-09-08T06:59:37;7.45;;;4.53;;
73150;SDS011;61354;50.758;6.106;2023-09-08T07:02:03;7.05;;;4.05;;
73150;SDS011;61354;50.758;6.106;2023-09-08T07:04:29;6.40;;;3.75;;
73150;SDS011;61354;50.758;6.106;2023-09-08T07:06:55;5.75;;;3.67;;
73150;SDS011;61354;50.758;6.106;2023-09-08T07:09:21;5.18;;;3.58;;
73150;SDS011;61354;50.758;6.106;2023-09-08T07:11:47;5.45;;;3.92;;
73150;SDS011;61354;50.758;6.106;2023-09-08T07:14:12;6.82;;;3.75;;
73150;SDS011;61354;50.758;6.106;2023-09-08T07:16:38;5.13;;;4.00;;
73150;SDS011;61354;50.758;6.106;2023-09-08T07:19:03;6.15;;;3.67;;
73150;SDS011;61354;50.758;6.106;2023-09-08T07:21:29;8.80;;;3.70;;
73150;SDS011;61354;50.758;6.106;2023-09-08T07:23:55;7.05;;;4.07;;
73150;SDS011;61354;50.758;6.106;2023-09-08T07:26:21;6.93;;;3.75;;
73150;SDS011;61354;50.758;6.106;2023-09-08T07:28:46;5.13;;;3.83;;
73150;SDS011;61354;50.758;6.106;2023-09-08T07:31:14;7.25;;;3.90;;
73150;SDS011;61354;50.758;6.106;2023-09-08T07:33:39;5.47;;;3.67;;
73150;SDS011;61354;50.758;6.106;2023-09-08T07:36:05;6.07;;;3.67;;
73150;SDS011;61354;50.758;6.106;2023-09-08T07:38:32;7.00;;;4.00;;
73150;SDS011;61354;50.758;6.106;2023-09-08T07:40:57;5.50;;;4.15;;
73150;SDS011;61354;50.758;6.106;2023-09-08T07:43:25;7.10;;;3.92;;
73150;SDS011;61354;50.758;6.106;2023-09-08T07:45:51;7.40;;;4.07;;
73150;SDS011;61354;50.758;6.106;2023-09-08T07:48:16;6.05;;;4.00;;
73150;SDS011;61354;50.758;6.106;2023-09-08T07:50:42;7.57;;;3.88;;
73150;SDS011;61354;50.758;6.106;2023-09-08T07:53:07;5.90;;;4.32;;
73150;SDS011;61354;50.758;6.106;2023-09-08T07:55:33;6.03;;;4.30;;
73150;SDS011;61354;50.758;6.106;2023-09-08T07:58:00;5.93;;;4.28;;
73150;SDS011;61354;50.758;6.106;2023-09-08T08:00:26;7.00;;;4.35;;
73150;SDS011;61354;50.758;6.106;2023-09-08T08:02:56;5.72;;;4.15;;
73150;SDS011;61354;50.758;6.106;2023-09-08T08:05:23;6.43;;;4.18;;
73150;SDS011;61354;50.758;6.106;2023-09-08T08:07:49;6.05;;;3.97;;
73150;SDS011;61354;50.758;6.106;2023-09-08T08:10:15;6.75;;;4.50;;
73150;SDS011;61354;50.758;6.106;2023-09-08T08:12:41;7.13;;;4.10;;
73150;SDS011;61354;50.758;6.106;2023-09-08T08:15:07;7.43;;;4.43;;
73150;SDS011;61354;50.758;6.106;2023-09-08T08:17:37;6.40;;;4.20;;
73150;SDS011;61354;50.758;6.106;2023-09-08T08:20:04;5.22;;;4.00;;
73150;SDS011;61354;50.758;6.106;2023-09-08T08:22:34;5.85;;;4.22;;
73150;SDS011;61354;50.758;6.106;2023-09-08T08:25:03;6.38;;;4.32;;
73150;SDS011;61354;50.758;6.106;2023-09-08T08:27:30;6.50;;;3.63;;
73150;SDS011;61354;50.758;6.106;2023-09-08T08:29:59;5.32;;;3.40;;
73150;SDS011;61354;50.758;6.106;2023-09-08T08:32:26;5.00;;;3.67;;
73150;SDS011;61354;50.758;6.106;2023-09-08T08:34:52;5.82;;;3.90;;
73150;SDS011;61354;50.758;6.106;2023-09-08T08:37:18;6.15;;;3.92;;
73150;SDS011;61354;50.758;6.106;2023-09-08T08:39:43;6.57;;;4.18;;
73150;SDS011;61354;50.758;6.106;2023-09-08T08:42:09;4.80;;;3.90;;
73150;SDS011;61354;50.758;6.106;2023-09-08T08:44:39;5.10;;;3.42;;
73150;SDS011;61354;50.758;6.106;2023-09-08T08:47:06;5.50;;;3.90;;
73150;SDS011;61354;50.758;6.106;2023-09-08T08:49:32;5.47;;;4.15;;
73150;SDS011;61354;50.758;6.106;2023-09-08T08:51:59;6.93;;;3.83;;
73150;SDS011;61354;50.758;6.106;2023-09-08T08:54:36;4.63;;;3.33;;
73150;SDS011;61354;50.758;6.106;2023-09-08T08:57:03;4.95;;;3.72;;
73150;SDS011;61354;50.758;6.106;2023-09-08T08:59:30;6.75;;;3.75;;
73150;SDS011;61354;50.758;6.106;2023-09-08T09:01:57;5.13;;;3.50;;
73150;SDS011;61354;50.758;6.106;2023-09-08T09:04:24;5.68;;;3.90;;
73150;SDS011;61354;50.758;6.106;2023-09-08T09:06:50;5.55;;;3.80;;
73150;SDS011;61354;50.758;6.106;2023-09-08T09:09:17;7.05;;;4.20;;
73150;SDS011;61354;50.758;6.106;2023-09-08T09:11:43;5.68;;;4.28;;
73150;SDS011;61354;50.758;6.106;2023-09-08T09:14:09;5.60;;;3.83;;
73150;SDS011;61354;50.758;6.106;2023-09-08T09:16:41;6.10;;;3.95;;
73150;SDS011;61354;50.758;6.106;2023-09-08T09:19:07;5.07;;;3.45;;
73150;SDS011;61354;50.758;6.106;2023-09-08T09:21:47;5.43;;;3.65;;
73150;SDS011;61354;50.758;6.106;2023-09-08T09:24:14;7.82;;;4.28;;
73150;SDS011;61354;50.758;6.106;2023-09-08T09:26:40;7.10;;;3.88;;
73150;SDS011;61354;50.758;6.106;2023-09-08T09:29:12;7.22;;;3.88;;
73150;SDS011;61354;50.758;6.106;2023-09-08T09:34:36;5.60;;;3.47;;
73150;SDS011;61354;50.758;6.106;2023-09-08T09:37:14;5.78;;;3.55;;
73150;SDS011;61354;50.758;6.106;2023-09-08T09:39:39;6.72;;;4.43;;
73150;SDS011;61354;50.758;6.106;2023-09-08T09:42:05;5.53;;;4.00;;
73150;SDS011;61354;50.758;6.106;2023-09-08T09:44:30;5.95;;;4.00;;
73150;SDS011;61354;50.758;6.106;2023-09-08T09:46:56;8.38;;;4.15;;
73150;SDS011;61354;50.758;6.106;2023-09-08T09:49:22;6.70;;;3.83;;
73150;SDS011;61354;50.758;6.106;2023-09-08T09:51:53;5.30;;;3.95;;
73150;SDS011;61354;50.758;6.106;2023-09-08T09:54:19;5.53;;;3.80;;
73150;SDS011;61354;50.758;6.106;2023-09-08T09:56:45;5.88;;;4.10;;
73150;SDS011;61354;50.758;6.106;2023-09-08T09:59:14;7.18;;;4.18;;
73150;SDS011;61354;50.758;6.106;2023-09-08T10:01:40;5.80;;;3.47;;
73150;SDS011;61354;50.758;6.106;2023-09-08T10:04:07;5.63;;;4.10;;
73150;SDS011;61354;50.758;6.106;2023-09-08T10:06:34;4.68;;;3.70;;
73150;SDS011;61354;50.758;6.106;2023-09-08T10:09:02;6.72;;;4.05;;
73150;SDS011;61354;50.758;6.106;2023-09-08T10:14:28;6.22;;;4.00;;
73150;SDS011;61354;50.758;6.106;2023-09-08T10:16:56;7.60;;;3.80;;
73150;SDS011;61354;50.758;6.106;2023-09-08T10:19:25;5.85;;;3.95;;
73150;SDS011;61354;50.758;6.106;2023-09-08T10:21:51;5.78;;;4.13;;
73150;SDS011;61354;50.758;6.106;2023-09-08T10:24:25;6.05;;;4.35;;
73150;SDS011;61354;50.758;6.106;2023-09-08T10:27:09;6.20;;;3.63;;
73150;SDS011;61354;50.758;6.106;2023-09-08T10:29:37;5.80;;;3.78;;
73150;SDS011;61354;50.758;6.106;2023-09-08T10:32:03;5.07;;;3.90;;
73150;SDS011;61354;50.758;6.106;2023-09-08T10:36:57;5.18;;;3.90;;
73150;SDS011;61354;50.758;6.106;2023-09-08T10:39:32;4.82;;;3.55;;
73150;SDS011;61354;50.758;6.106;2023-09-08T10:44:55;6.82;;;3.85;;
73150;SDS011;61354;50.758;6.106;2023-09-08T10:47:26;6.63;;;4.50;;
73150;SDS011;61354;50.758;6.106;2023-09-08T10:49:59;5.53;;;3.72;;
73150;SDS011;61354;50.758;6.106;2023-09-08T10:52:25;7.82;;;3.97;;
73150;SDS011;61354;50.758;6.106;2023-09-08T10:54:51;5.53;;;3.78;;
73150;SDS011;61354;50.758;6.106;2023-09-08T10:57:22;7.20;;;4.60;;
73150;SDS011;61354;50.758;6.106;2023-09-08T11:05:02;6.07;;;4.15;;
73150;SDS011;61354;50.758;6.106;2023-09-08T11:07:30;6.07;;;4.03;;
73150;SDS011;61354;50.758;6.106;2023-09-08T11:09:57;5.65;;;4.10;;
73150;SDS011;61354;50.758;6.106;2023-09-08T11:12:26;6.68;;;4.18;;
73150;SDS011;61354;50.758;6.106;2023-09-08T11:14:52;7.55;;;4.05;;
73150;SDS011;61354;50.758;6.106;2023-09-08T11:17:18;9.10;;;4.57;;
73150;SDS011;61354;50.758;6.106;2023-09-08T11:19:46;7.00;;;4.05;;
73150;SDS011;61354;50.758;6.106;2023-09-08T11:22:16;5.65;;;4.28;;
73150;SDS011;61354;50.758;6.106;2023-09-08T11:24:43;6.07;;;3.97;;
73150;SDS011;61354;50.758;6.106;2023-09-08T11:27:09;7.57;;;4.22;;
73150;SDS011;61354;50.758;6.106;2023-09-08T11:29:36;5.07;;;4.18;;
73150;SDS011;61354;50.758;6.106;2023-09-08T11:32:02;6.72;;;4.40;;
73150;SDS011;61354;50.758;6.106;2023-09-08T11:34:29;5.47;;;4.45;;
73150;SDS011;61354;50.758;6.106;2023-09-08T11:36:56;6.95;;;4.38;;
73150;SDS011;61354;50.758;6.106;2023-09-08T11:41:53;9.45;;;4.75;;
73150;SDS011;61354;50.758;6.106;2023-09-08T11:44:19;7.88;;;4.60;;
73150;SDS011;61354;50.758;6.106;2023-09-08T11:46:45;8.20;;;4.30;;
73150;SDS011;61354;50.758;6.106;2023-09-08T11:49:13;6.85;;;4.47;;
73150;SDS011;61354;50.758;6.106;2023-09-08T11:51:39;6.72;;;4.28;;
73150;SDS011;61354;50.758;6.106;2023-09-08T11:54:04;5.72;;;4.60;;
73150;SDS011;61354;50.758;6.106;2023-09-08T11:56:30;6.25;;;4.43;;
73150;SDS011;61354;50.758;6.106;2023-09-08T11:58:56;5.55;;;4.57;;
73150;SDS011;61354;50.758;6.106;2023-09-08T12:01:22;7.60;;;4.60;;
73150;SDS011;61354;50.758;6.106;2023-09-08T12:03:55;5.88;;;4.13;;
73150;SDS011;61354;50.758;6.106;2023-09-08T12:06:25;6.13;;;4.63;;
73150;SDS011;61354;50.758;6.106;2023-09-08T12:08:53;6.63;;;4.63;;
73150;SDS011;61354;50.758;6.106;2023-09-08T12:11:19;5.85;;;4.45;;
73150;SDS011;61354;50.758;6.106;2023-09-08T12:13:45;6.82;;;4.40;;
73150;SDS011;61354;50.758;6.106;2023-09-08T12:16:17;7.15;;;4.38;;
73150;SDS011;61354;50.758;6.106;2023-09-08T12:18:43;10.02;;;4.70;;
73150;SDS011;61354;50.758;6.106;2023-09-08T12:21:10;7.47;;;4.32;;
73150;SDS011;61354;50.758;6.106;2023-09-08T12:23:57;6.18;;;4.60;;
73150;SDS011;61354;50.758;6.106;2023-09-08T12:26:24;7.03;;;4.53;;
73150;SDS011;61354;50.758;6.106;2023-09-08T12:28:50;6.03;;;4.60;;
73150;SDS011;61354;50.758;6.106;2023-09-08T12:31:17;5.25;;;3.95;;
73150;SDS011;61354;50.758;6.106;2023-09-08T12:33:43;7.72;;;4.28;;
73150;SDS011;61354;50.758;6.106;2023-09-08T12:36:10;6.75;;;4.53;;
73150;SDS011;61354;50.758;6.106;2023-09-08T12:38:51;7.10;;;4.72;;
73150;SDS011;61354;50.758;6.106;2023-09-08T12:41:17;6.65;;;4.93;;
73150;SDS011;61354;50.758;6.106;2023-09-08T12:43:44;6.95;;;5.20;;
73150;SDS011;61354;50.758;6.106;2023-09-08T12:46:10;6.05;;;4.63;;
73150;SDS011;61354;50.758;6.106;2023-09-08T12:48:37;6.25;;;4.82;;
73150;SDS011;61354;50.758;6.106;2023-09-08T12:51:02;6.85;;;4.80;;
73150;SDS011;61354;50.758;6.106;2023-09-08T12:53:32;6.47;;;4.68;;
73150;SDS011;61354;50.758;6.106;2023-09-08T12:55:59;7.07;;;4.72;;
73150;SDS011;61354;50.758;6.106;2023-09-08T12:58:25;8.05;;;4.97;;
73150;SDS011;61354;50.758;6.106;2023-09-08T13:03:18;5.45;;;4.43;;
73150;SDS011;61354;50.758;6.106;2023-09-08T13:05:43;7.60;;;4.63;;
73150;SDS011;61354;50.758;6.106;2023-09-08T13:08:09;8.68;;;5.00;;
73150;SDS011;61354;50.758;6.106;2023-09-08T13:10:36;6.53;;;4.72;;
73150;SDS011;61354;50.758;6.106;2023-09-08T13:13:02;6.95;;;4.72;;
73150;SDS011;61354;50.758;6.106;2023-09-08T13:15:27;8.85;;;5.07;;
73150;SDS011;61354;50.758;6.106;2023-09-08T13:17:53;6.97;;;4.50;;
73150;SDS011;61354;50.758;6.106;2023-09-08T13:20:18;7.32;;;4.65;;
73150;SDS011;61354;50.758;6.106;2023-09-08T13:22:44;8.52;;;5.28;;
73150;SDS011;61354;50.758;6.106;2023-09-08T13:25:10;11.70;;;4.95;;
73150;SDS011;61354;50.758;6.106;2023-09-08T13:27:35;6.72;;;4.60;;
73150;SDS011;61354;50.758;6.106;2023-09-08T13:32:28;6.32;;;5.10;;
73150;SDS011;61354;50.758;6.106;2023-09-08T13:34:54;7.88;;;5.15;;
73150;SDS011;61354;50.758;6.106;2023-09-08T13:37:19;7.80;;;5.40;;
73150;SDS011;61354;50.758;6.106;2023-09-08T13:39:45;7.50;;;4.60;;
73150;SDS011;61354;50.758;6.106;2023-09-08T13:42:10;7.10;;;4.97;;
73150;SDS011;61354;50.758;6.106;2023-09-08T13:44:36;6.00;;;4.88;;
73150;SDS011;61354;50.758;6.106;2023-09-08T13:47:02;6.65;;;5.20;;
73150;SDS011;61354;50.758;6.106;2023-09-08T13:49:30;6.72;;;4.93;;
73150;SDS011;61354;50.758;6.106;2023-09-08T13:51:56;6.95;;;5.25;;
73150;SDS011;61354;50.758;6.106;2023-09-08T13:54:22;6.35;;;4.95;;
73150;SDS011;61354;50.758;6.106;2023-09-08T13:56:56;6.90;;;5.10;;
73150;SDS011;61354;50.758;6.106;2023-09-08T13:59:26;6.65;;;5.15;;
73150;SDS011;61354;50.758;6.106;2023-09-08T14:01:53;6.70;;;5.25;;
73150;SDS011;61354;50.758;6.106;2023-09-08T14:04:19;6.53;;;5.13;;
73150;SDS011;61354;50.758;6.106;2023-09-08T14:06:45;7.15;;;5.18;;
73150;SDS011;61354;50.758;6.106;2023-09-08T14:09:11;8.68;;;5.15;;
73150;SDS011;61354;50.758;6.106;2023-09-08T14:11:36;5.72;;;4.22;;
73150;SDS011;61354;50.758;6.106;2023-09-08T14:14:02;6.85;;;5.28;;
73150;SDS011;61354;50.758;6.106;2023-09-08T14:16:28;6.70;;;5.13;;
73150;SDS011;61354;50.758;6.106;2023-09-08T14:18:55;6.93;;;4.63;;
73150;SDS011;61354;50.758;6.106;2023-09-08T14:21:21;8.13;;;5.22;;
73150;SDS011;61354;50.758;6.106;2023-09-08T14:23:46;6.95;;;5.50;;
73150;SDS011;61354;50.758;6.106;2023-09-08T14:26:12;8.20;;;5.18;;
73150;SDS011;61354;50.758;6.106;2023-09-08T14:28:38;5.60;;;5.00;;
73150;SDS011;61354;50.758;6.106;2023-09-08T14:31:03;7.30;;;5.55;;
73150;SDS011;61354;50.758;6.106;2023-09-08T14:33:29;7.88;;;5.22;;
73150;SDS011;61354;50.758;6.106;2023-09-08T14:35:55;8.18;;;5.10;;
73150;SDS011;61354;50.758;6.106;2023-09-08T14:38:21;6.30;;;5.32;;
73150;SDS011;61354;50.758;6.106;2023-09-08T14:40:57;9.50;;;5.72;;
73150;SDS011;61354;50.758;6.106;2023-09-08T14:43:27;9.90;;;5.20;;
73150;SDS011;61354;50.758;6.106;2023-09-08T14:45:53;7.60;;;5.05;;
73150;SDS011;61354;50.758;6.106;2023-09-08T14:48:22;6.68;;;5.03;;
73150;SDS011;61354;50.758;6.106;2023-09-08T14:50:48;7.72;;;5.40;;
73150;SDS011;61354;50.758;6.106;2023-09-08T14:53:13;8.38;;;4.93;;
73150;SDS011;61354;50.758;6.106;2023-09-08T14:55:39;5.75;;;5.07;;
73150;SDS011;61354;50.758;6.106;2023-09-08T14:58:04;7.35;;;5.50;;
73150;SDS011;61354;50.758;6.106;2023-09-08T15:00:30;7.47;;;5.22;;
73150;SDS011;61354;50.758;6.106;2023-09-08T15:02:56;8.90;;;5.47;;
73150;SDS011;61354;50.758;6.106;2023-09-08T15:05:21;8.18;;;5.13;;
73150;SDS011;61354;50.758;6.106;2023-09-08T15:07:47;8.18;;;4.95;;
73150;SDS011;61354;50.758;6.106;2023-09-08T15:10:12;7.45;;;5.38;;
73150;SDS011;61354;50.758;6.106;2023-09-08T15:12:38;8.30;;;5.70;;
73150;SDS011;61354;50.758;6.106;2023-09-08T15:15:04;7.32;;;5.30;;
73150;SDS011;61354;50.758;6.106;2023-09-08T15:17:30;8.30;;;5.43;;
73150;SDS011;61354;50.758;6.106;2023-09-08T15:19:55;8.30;;;5.50;;
73150;SDS011;61354;50.758;6.106;2023-09-08T15:22:21;6.93;;;5.68;;